CLIMA

Resumen Mensual Marzo 2021

Fecha Temp. Max Temp. Min Humedad Precip. Pto. Rocio Max Pto. Rocio Min Viento Rafaga de Viento
2021-03-01 - - - - - - - -
2021-03-02 - - - - - - - -
2021-03-03 30.2 °C 20.4 °C 95 % - 21.7 °C 19.4 °C 10.2 Km/h 22 Km/h
2021-03-04 31.4 °C 19.9 °C 97 % 2.4 mm 22.8 °C 18.4 °C 5.8 Km/h 13.3 Km/h
2021-03-05 25.4 °C 11.8 °C 95 % - 18.4 °C 10.7 °C 7.5 Km/h 22 Km/h
2021-03-06 26.4 °C 7.8 °C 99 % - 15.7 °C 7.5 °C 2.8 Km/h 13.3 Km/h
2021-03-07 29.5 °C 9.6 °C 99 % - 18.9 °C 9.3 °C 4.8 Km/h 14.8 Km/h
2021-03-08 30.1 °C 13.9 °C 92 % 0.6 mm 22.1 °C 11.6 °C 7.7 Km/h 20.9 Km/h
2021-03-09 26.6 °C 8.1 °C 96 % 0.6 mm 15 °C 7.3 °C 5.8 Km/h 17.3 Km/h
2021-03-10 30.1 °C 10.2 °C 98 % - 20 °C 9.9 °C 6.5 Km/h 22 Km/h
2021-03-11 30.2 °C 17.4 °C 96 % - 20.5 °C 15.3 °C 6.9 Km/h 25.6 Km/h
2021-03-12 29.4 °C 11.4 °C 98 % - 19 °C 11.1 °C 4.9 Km/h 13.3 Km/h
2021-03-13 30.1 °C 10.5 °C 98 % - 17.5 °C 10 °C 3.9 Km/h 14.8 Km/h
2021-03-14 31.1 °C 13.4 °C 92 % - 17.3 °C 11 °C 4.7 Km/h 14.8 Km/h
2021-03-15 - - - - - - - -
2021-03-15 29 °C 16.5 °C 96 % 3.3 mm 18.8 °C 12.4 °C 6.6 Km/h 20.9 Km/h
2021-03-16 - - - - - - - -
2021-03-16 23.4 °C 17.7 °C 98 % 15 mm 20.7 °C 16.9 °C 6 Km/h 18.4 Km/h
2021-03-17 - - - - - - - -
2021-03-17 19 °C 9.4 °C 98 % 0.3 mm 18.7 °C 7.4 °C 16.4 Km/h 33.1 Km/h
2021-03-18 20 °C 7.1 °C 95 % - 11.1 °C 6.2 °C 5.3 Km/h 14.8 Km/h
2021-03-18 - - - - - - - -
2021-03-19 - - - - - - - -
2021-03-19 24.4 °C 6.6 °C 98 % - 14.8 °C 6.2 °C 5.3 Km/h 25.6 Km/h
2021-03-20 - - - - - - - -
2021-03-20 20.6 °C 13.7 °C 98 % 27.9 mm 17.6 °C 13.4 °C 7.3 Km/h 28.1 Km/h
2021-03-21 24.5 °C 11.1 °C 98 % 0.3 mm 16.4 °C 10.3 °C 5.8 Km/h 24.5 Km/h
2021-03-21 - - - - - - - -
2021-03-22 - - - - - - - -
2021-03-22 25.1 °C 8.2 °C 98 % - 16.7 °C 7.8 °C 3 Km/h 14.8 Km/h
2021-03-23 26.5 °C 10 °C 98 % - 16.7 °C 9.5 °C 3 Km/h 11.2 Km/h
2021-03-23 - - - - - - - -
2021-03-24 28.4 °C 13.8 °C 98 % - 20.4 °C 13 °C 5.7 Km/h 22 Km/h
2021-03-24 - - - - - - - -
2021-03-25 22.4 °C 18.6 °C 97 % 21.9 mm 19.9 °C 17.9 °C 5.5 Km/h 20.9 Km/h
2021-03-25 - - - - - - - -
2021-03-26 24.6 °C 17.8 °C 97 % 15.9 mm 20.7 °C 17 °C 7.7 Km/h 24.5 Km/h
2021-03-26 - - - - - - - -
2021-03-27 - - - - - - - -
2021-03-27 26.9 °C 17.1 °C 98 % 1.2 mm 20.8 °C 14.9 °C 7.7 Km/h 25.6 Km/h
2021-03-28 - - - - - - - -
2021-03-28 26.6 °C 14.9 °C 98 % - 19.8 °C 14.3 °C 4.7 Km/h 18.4 Km/h
2021-03-29 - - - - - - - -
2021-03-29 24.6 °C 11.8 °C 97 % - 17 °C 11 °C 6.5 Km/h 17.3 Km/h
2021-03-30 24.4 °C 8.5 °C 99 % 0.3 mm 15.1 °C 8.2 °C 3.2 Km/h 17.3 Km/h
2021-03-30 - - - - - - - -
2021-03-31 - - - - - - - -
2021-03-31 24 °C 8.2 °C 99 % - 16.6 °C 7.9 °C 3.8 Km/h 17.3 Km/h